createdAt,value
2022-10-01T00:00:01.554Z,0.122
2022-10-01T00:05:01.715Z,0.17500000000000002
2022-10-01T00:10:01.895Z,0.179
2022-10-01T00:15:05.600Z,0.17
2022-10-01T00:20:01.570Z,0.134
2022-10-01T00:25:01.608Z,0.114
2022-10-01T00:30:01.746Z,0.113
2022-10-01T00:35:01.602Z,0.112
2022-10-01T00:40:01.612Z,0.055
2022-10-01T00:45:01.624Z,0
2022-10-01T00:50:01.674Z,0
2022-10-01T00:55:01.770Z,0
2022-10-01T01:00:01.625Z,0.04
2022-10-01T01:05:01.748Z,0.155
2022-10-01T01:10:01.598Z,0.117
2022-10-01T01:15:01.585Z,0.106
2022-10-01T01:20:01.763Z,0.105
2022-10-01T01:25:01.928Z,0.106
2022-10-01T01:30:01.651Z,0.113
2022-10-01T01:35:01.613Z,0.148
2022-10-01T01:40:01.641Z,0.162
2022-10-01T01:45:01.728Z,0.16
2022-10-01T01:50:01.819Z,0.14400000000000002
2022-10-01T01:55:01.724Z,0.123
2022-10-01T02:00:01.674Z,0.122
2022-10-01T02:05:01.783Z,0.125
2022-10-01T02:10:01.670Z,1.022
2022-10-01T02:15:01.911Z,1.332
2022-10-01T02:20:01.662Z,1.289
2022-10-01T02:25:01.849Z,1.7810000000000001
2022-10-01T02:30:01.695Z,1.936
2022-10-01T02:35:01.717Z,1.966
2022-10-01T02:40:01.881Z,2.121
2022-10-01T02:45:01.710Z,1.595
2022-10-01T02:50:01.685Z,1.309
2022-10-01T02:55:01.753Z,1.284
2022-10-01T03:00:01.896Z,1.288
2022-10-01T03:05:01.748Z,1.227
2022-10-01T03:10:01.701Z,1.185
2022-10-01T03:15:01.744Z,1.204
2022-10-01T03:20:01.757Z,1.208
2022-10-01T03:25:01.945Z,1.249
2022-10-01T03:30:01.762Z,1.224
2022-10-01T03:35:01.731Z,1.24
2022-10-01T03:40:01.884Z,1.26
2022-10-01T03:45:01.932Z,1.2690000000000001
2022-10-01T03:50:01.750Z,1.231
2022-10-01T03:55:01.930Z,1.184
2022-10-01T04:00:01.809Z,1.192
2022-10-01T04:05:01.860Z,1.199
2022-10-01T04:10:01.766Z,1.266
2022-10-01T04:15:01.771Z,1.173
2022-10-01T04:20:01.843Z,1.145
2022-10-01T04:25:01.840Z,1.422
2022-10-01T04:30:01.998Z,1.7910000000000001
2022-10-01T04:35:01.767Z,1.784
2022-10-01T04:40:01.839Z,1.768
2022-10-01T04:45:01.927Z,1.475
2022-10-01T04:50:01.946Z,0.182
2022-10-01T04:55:01.866Z,0.012
2022-10-01T05:00:01.807Z,0
2022-10-01T05:05:01.824Z,0
2022-10-01T05:10:01.970Z,16.562
2022-10-01T05:15:01.891Z,20.916
2022-10-01T05:20:01.875Z,5.583
2022-10-01T05:25:02.019Z,21.345
2022-10-01T05:30:02.060Z,29.779
2022-10-01T05:35:01.870Z,7.165
2022-10-01T05:40:01.835Z,25.476
2022-10-01T05:45:01.902Z,34.763
2022-10-01T05:50:02.130Z,37.636
2022-10-01T05:55:01.883Z,45.245
2022-10-01T06:00:01.974Z,36.997
2022-10-01T06:05:01.928Z,45.157000000000004
2022-10-01T06:10:01.986Z,54.117000000000004
2022-10-01T06:15:01.975Z,128.167
2022-10-01T06:20:01.883Z,203.739
2022-10-01T06:25:01.927Z,301.997
2022-10-01T06:30:01.985Z,375.647
2022-10-01T06:35:02.075Z,431.88800000000003
2022-10-01T06:40:01.964Z,531.484
2022-10-01T06:45:01.926Z,615.234
2022-10-01T06:50:01.922Z,637.283
2022-10-01T06:55:02.120Z,597.248
2022-10-01T07:00:01.953Z,622.889
2022-10-01T07:05:01.926Z,835.306
2022-10-01T07:10:01.922Z,1067.819
2022-10-01T07:15:02.072Z,1169.939
2022-10-01T07:20:01.968Z,979.8190000000001
2022-10-01T07:25:01.993Z,785.025
2022-10-01T07:30:01.984Z,853.91
2022-10-01T07:35:02.036Z,1213.2160000000001
2022-10-01T07:40:06.624Z,1504.393
2022-10-01T07:45:02.006Z,1643.047
2022-10-01T07:50:02.064Z,1995.9950000000001
2022-10-01T07:55:02.085Z,1858.517
2022-10-01T08:00:02.118Z,1966.375
2022-10-01T08:05:01.963Z,1774.548
2022-10-01T08:10:01.977Z,2048.725
2022-10-01T08:15:01.950Z,2028.479
2022-10-01T08:20:02.105Z,1785.58
2022-10-01T08:25:02.267Z,1815.45
2022-10-01T08:30:02.006Z,1952.363
2022-10-01T08:35:03.553Z,1592.253
2022-10-01T08:40:01.996Z,1260.988
2022-10-01T08:45:02.177Z,1163.497
2022-10-01T08:50:02.010Z,1269.714
2022-10-01T08:55:02.056Z,1388.506
2022-10-01T09:00:02.061Z,1489.2920000000001
2022-10-01T09:05:02.430Z,1562.977
2022-10-01T09:10:02.214Z,1652.099
2022-10-01T09:15:02.119Z,1723.3210000000001
2022-10-01T09:20:02.102Z,1792.8890000000001
2022-10-01T09:25:02.107Z,1747.041
2022-10-01T09:30:02.243Z,1434.565
2022-10-01T09:35:04.379Z,1215.644
2022-10-01T09:40:02.058Z,1221.724
2022-10-01T09:45:02.078Z,1202.423
2022-10-01T09:50:02.195Z,1142.348
2022-10-01T09:55:02.133Z,980.84
2022-10-01T10:00:02.116Z,1063.4660000000001
2022-10-01T10:05:02.112Z,1202.175
2022-10-01T10:10:02.073Z,1061.457
2022-10-01T10:15:02.273Z,847.096
2022-10-01T10:20:02.119Z,788.926
2022-10-01T10:25:02.129Z,645.759
2022-10-01T10:30:02.187Z,707.155
2022-10-01T10:35:03.485Z,813.472
2022-10-01T10:40:02.254Z,750.171
2022-10-01T10:45:02.118Z,750.3580000000001
2022-10-01T10:50:02.166Z,685.806
2022-10-01T10:55:02.302Z,670.736
2022-10-01T11:00:02.215Z,977.004
2022-10-01T11:05:02.281Z,844.537
2022-10-01T11:10:02.194Z,867.969
2022-10-01T11:15:02.157Z,860.745
2022-10-01T11:20:02.131Z,843.975
2022-10-01T11:25:02.207Z,835.446
2022-10-01T11:30:02.726Z,853.867
2022-10-01T11:35:02.149Z,752.869
2022-10-01T11:40:02.174Z,637.977
2022-10-01T11:45:02.229Z,781.806
2022-10-01T11:50:02.155Z,1139.907
2022-10-01T11:55:02.357Z,955.601
2022-10-01T12:00:02.539Z,1031.339
2022-10-01T12:05:02.205Z,745.586
2022-10-01T12:10:02.198Z,475.39300000000003
2022-10-01T12:15:06.358Z,420.80400000000003
2022-10-01T12:20:02.425Z,292.098
2022-10-01T12:25:02.250Z,126.367
2022-10-01T12:30:02.256Z,241.429
2022-10-01T12:35:02.213Z,318.546
2022-10-01T12:40:02.209Z,379.855
2022-10-01T12:45:02.384Z,582.0790000000001
2022-10-01T12:50:02.235Z,513.883
2022-10-01T12:55:02.349Z,330.782
2022-10-01T13:00:02.343Z,175.893
2022-10-01T13:05:02.231Z,166.52
2022-10-01T13:10:02.436Z,353.094
2022-10-01T13:15:02.232Z,571.864
2022-10-01T13:20:02.248Z,527.8050000000001
2022-10-01T13:25:02.273Z,398.24
2022-10-01T13:30:02.373Z,365.136
2022-10-01T13:35:02.241Z,355.205
2022-10-01T13:40:02.326Z,186.374
2022-10-01T13:45:02.341Z,141.655
2022-10-01T13:50:02.276Z,127.62100000000001
2022-10-01T13:55:02.455Z,186.719
2022-10-01T14:00:02.267Z,159.51
2022-10-01T14:05:02.265Z,136.632
2022-10-01T14:10:02.380Z,195.18200000000002
2022-10-01T14:15:02.440Z,145.264
2022-10-01T14:20:02.298Z,37.475
2022-10-01T14:25:02.303Z,31.224
2022-10-01T14:30:02.341Z,47.091
2022-10-01T14:35:02.300Z,78.136
2022-10-01T14:40:02.483Z,116.636
2022-10-01T14:45:02.304Z,159.235
2022-10-01T14:50:02.335Z,199.903
2022-10-01T14:55:02.461Z,266.87
2022-10-01T15:00:02.468Z,218.094
2022-10-01T15:05:02.383Z,183.239
2022-10-01T15:10:02.561Z,194.487
2022-10-01T15:15:02.344Z,240.686
2022-10-01T15:20:02.418Z,180.13400000000001
2022-10-01T15:25:02.567Z,164.234
2022-10-01T15:30:02.384Z,99.60300000000001
2022-10-01T15:35:02.367Z,49.788000000000004
2022-10-01T15:40:02.358Z,22.049
2022-10-01T15:45:02.545Z,0.077
2022-10-01T15:50:02.450Z,0.07
2022-10-01T15:55:02.372Z,0.065
2022-10-01T16:00:02.400Z,0.106
2022-10-01T16:05:02.447Z,0.11
2022-10-01T16:10:02.585Z,0.112
2022-10-01T16:15:02.491Z,0.092
2022-10-01T16:20:02.385Z,0.077
2022-10-01T16:25:02.418Z,0.029
2022-10-01T16:30:05.563Z,0.021
2022-10-01T16:35:02.378Z,0.033
2022-10-01T16:40:02.413Z,0.054
2022-10-01T16:45:02.485Z,0.08700000000000001
2022-10-01T16:50:02.578Z,0.108
2022-10-01T16:55:02.691Z,0.109
2022-10-01T17:00:02.471Z,0.11
2022-10-01T17:05:02.407Z,0.076
2022-10-01T17:10:02.611Z,0.082
2022-10-01T17:15:02.665Z,0.07100000000000001
2022-10-01T17:20:02.424Z,0.07
2022-10-01T17:25:02.445Z,0.07200000000000001
2022-10-01T17:30:02.555Z,0.082
2022-10-01T17:35:02.727Z,0.111
2022-10-01T17:40:02.449Z,0.091
2022-10-01T17:45:02.453Z,0.091
2022-10-01T17:50:02.466Z,0.051000000000000004
2022-10-01T17:55:02.586Z,0.052000000000000005
2022-10-01T18:00:02.651Z,0.05
2022-10-01T18:05:02.521Z,0.049
2022-10-01T18:10:02.533Z,0.053
2022-10-01T18:15:02.513Z,0.041
2022-10-01T18:20:02.647Z,0
2022-10-01T18:25:02.535Z,0
2022-10-01T18:30:02.544Z,0
2022-10-01T18:35:02.566Z,0.062
2022-10-01T18:40:02.607Z,0.099
2022-10-01T18:45:02.667Z,0.105
2022-10-01T18:50:02.520Z,0.10400000000000001
2022-10-01T18:55:02.570Z,0.111
2022-10-01T19:00:02.570Z,0.11800000000000001
2022-10-01T19:05:02.701Z,0.161
2022-10-01T19:10:02.667Z,0.162
2022-10-01T19:15:02.575Z,0.157
2022-10-01T19:20:02.634Z,0.122
2022-10-01T19:25:02.629Z,0.112
2022-10-01T19:30:02.804Z,0.108
2022-10-01T19:35:02.542Z,0.10200000000000001
2022-10-01T19:40:02.550Z,0.094
2022-10-01T19:45:02.682Z,0.10200000000000001
2022-10-01T19:50:02.718Z,0.135
2022-10-01T19:55:02.945Z,0.14300000000000002
2022-10-01T20:00:02.571Z,0.134
2022-10-01T20:05:02.713Z,0.101
2022-10-01T20:10:05.427Z,0.092
2022-10-01T20:15:02.828Z,0.1
2022-10-01T20:20:02.582Z,0.11800000000000001
2022-10-01T20:25:02.663Z,0.11900000000000001
2022-10-01T20:30:02.682Z,0.109
2022-10-01T20:35:02.787Z,0.152
2022-10-01T20:40:02.603Z,0.154
2022-10-01T20:45:02.755Z,0.157
2022-10-01T20:50:04.818Z,0.132
2022-10-01T20:55:02.797Z,0.11900000000000001
2022-10-01T21:00:02.912Z,0.121
2022-10-01T21:05:02.637Z,0.11800000000000001
2022-10-01T21:10:02.767Z,0.11900000000000001
2022-10-01T21:15:02.678Z,0.121
2022-10-01T21:20:02.827Z,0.162
2022-10-01T21:25:02.653Z,0.168
2022-10-01T21:30:02.671Z,0.03
2022-10-01T21:35:02.661Z,0
2022-10-01T21:40:02.796Z,0
2022-10-01T21:45:02.915Z,0.01
2022-10-01T21:50:01.174Z,0.106
2022-10-01T21:55:01.001Z,0.105
2022-10-01T22:00:01.230Z,0.10300000000000001
2022-10-01T22:05:00.991Z,0.135
2022-10-01T22:10:01.168Z,0.161
2022-10-01T22:15:01.005Z,0.171
2022-10-01T22:20:01.032Z,0.154
2022-10-01T22:25:01.050Z,0.111
2022-10-01T22:30:01.148Z,0.106
2022-10-01T22:35:01.040Z,0.107
2022-10-01T22:40:01.042Z,0.107
2022-10-01T22:45:01.188Z,0.11
2022-10-01T22:50:01.021Z,0.14200000000000002
2022-10-01T22:55:01.249Z,0.17200000000000001
2022-10-01T23:00:01.137Z,0.167
2022-10-01T23:05:01.034Z,0.164
2022-10-01T23:10:01.177Z,0.121
2022-10-01T23:15:01.209Z,0.125
2022-10-01T23:20:01.052Z,0.125
2022-10-01T23:25:01.085Z,0.123
2022-10-01T23:30:01.126Z,0.12
2022-10-01T23:35:01.063Z,0.11800000000000001
2022-10-01T23:40:01.242Z,0.162
2022-10-01T23:45:01.105Z,0.162
2022-10-01T23:50:01.221Z,0.165
2022-10-01T23:55:01.151Z,0.12
